sensor_id;sensor_type;location;lat;lon;timestamp;temperature;humidity
52509;DHT22;38420;53.150;6.370;2023-08-30T00:00:20;12.80;99.90
52509;DHT22;38420;53.150;6.370;2023-08-30T00:02:48;13.10;99.90
52509;DHT22;38420;53.150;6.370;2023-08-30T00:05:14;13.40;99.90
52509;DHT22;38420;53.150;6.370;2023-08-30T00:07:40;14.60;99.90
52509;DHT22;38420;53.150;6.370;2023-08-30T00:10:08;14.20;99.90
52509;DHT22;38420;53.150;6.370;2023-08-30T00:12:36;14.30;99.90
52509;DHT22;38420;53.150;6.370;2023-08-30T00:15:01;14.00;99.90
52509;DHT22;38420;53.150;6.370;2023-08-30T00:17:27;14.50;99.90
52509;DHT22;38420;53.150;6.370;2023-08-30T00:19:53;14.20;99.90
52509;DHT22;38420;53.150;6.370;2023-08-30T00:22:21;12.60;99.90
52509;DHT22;38420;53.150;6.370;2023-08-30T00:24:47;12.70;99.90
52509;DHT22;38420;53.150;6.370;2023-08-30T00:27:12;12.50;99.90
52509;DHT22;38420;53.150;6.370;2023-08-30T00:29:38;14.40;99.90
52509;DHT22;38420;53.150;6.370;2023-08-30T00:32:04;14.40;99.90
52509;DHT22;38420;53.150;6.370;2023-08-30T00:34:30;13.80;99.90
52509;DHT22;38420;53.150;6.370;2023-08-30T00:36:55;13.60;99.90
52509;DHT22;38420;53.150;6.370;2023-08-30T00:39:21;13.90;99.90
52509;DHT22;38420;53.150;6.370;2023-08-30T00:41:47;12.40;99.90
52509;DHT22;38420;53.150;6.370;2023-08-30T00:44:13;14.30;99.90
52509;DHT22;38420;53.150;6.370;2023-08-30T00:46:39;13.00;99.90
52509;DHT22;38420;53.150;6.370;2023-08-30T00:49:05;12.40;99.90
52509;DHT22;38420;53.150;6.370;2023-08-30T00:51:31;12.40;99.90
52509;DHT22;38420;53.150;6.370;2023-08-30T00:53:59;14.00;99.90
52509;DHT22;38420;53.150;6.370;2023-08-30T00:56:27;12.60;99.90
52509;DHT22;38420;53.150;6.370;2023-08-30T00:58:53;13.30;99.90
52509;DHT22;38420;53.150;6.370;2023-08-30T01:01:20;12.30;99.90
52509;DHT22;38420;53.150;6.370;2023-08-30T01:03:45;13.60;99.90
52509;DHT22;38420;53.150;6.370;2023-08-30T01:06:11;14.20;99.90
52509;DHT22;38420;53.150;6.370;2023-08-30T01:08:39;13.90;99.90
52509;DHT22;38420;53.150;6.370;2023-08-30T01:13:42;12.30;99.90
52509;DHT22;38420;53.150;6.370;2023-08-30T01:16:10;12.90;99.90
52509;DHT22;38420;53.150;6.370;2023-08-30T01:18:39;12.30;99.90
52509;DHT22;38420;53.150;6.370;2023-08-30T01:21:09;12.50;99.90
52509;DHT22;38420;53.150;6.370;2023-08-30T01:23:51;12.80;99.90
52509;DHT22;38420;53.150;6.370;2023-08-30T01:26:42;12.30;99.90
52509;DHT22;38420;53.150;6.370;2023-08-30T01:29:11;12.00;99.90
52509;DHT22;38420;53.150;6.370;2023-08-30T01:31:39;12.00;99.90
52509;DHT22;38420;53.150;6.370;2023-08-30T01:34:06;13.80;99.90
52509;DHT22;38420;53.150;6.370;2023-08-30T01:36:32;13.20;99.90
52509;DHT22;38420;53.150;6.370;2023-08-30T01:38:58;12.50;99.90
52509;DHT22;38420;53.150;6.370;2023-08-30T01:41:26;12.30;99.90
52509;DHT22;38420;53.150;6.370;2023-08-30T01:43:53;12.40;99.90
52509;DHT22;38420;53.150;6.370;2023-08-30T01:46:21;13.70;99.90
52509;DHT22;38420;53.150;6.370;2023-08-30T01:48:48;13.60;99.90
52509;DHT22;38420;53.150;6.370;2023-08-30T01:51:16;13.60;99.90
52509;DHT22;38420;53.150;6.370;2023-08-30T01:53:43;13.80;99.90
52509;DHT22;38420;53.150;6.370;2023-08-30T01:56:10;13.80;99.90
52509;DHT22;38420;53.150;6.370;2023-08-30T01:58:35;13.80;99.90
52509;DHT22;38420;53.150;6.370;2023-08-30T02:01:01;13.80;99.90
52509;DHT22;38420;53.150;6.370;2023-08-30T02:03:27;13.40;99.90
52509;DHT22;38420;53.150;6.370;2023-08-30T02:06:12;13.90;99.90
52509;DHT22;38420;53.150;6.370;2023-08-30T02:08:41;12.50;99.90
52509;DHT22;38420;53.150;6.370;2023-08-30T02:11:17;13.80;99.90
52509;DHT22;38420;53.150;6.370;2023-08-30T02:13:45;13.50;99.90
52509;DHT22;38420;53.150;6.370;2023-08-30T02:16:13;13.90;99.90
52509;DHT22;38420;53.150;6.370;2023-08-30T02:18:39;13.70;99.90
52509;DHT22;38420;53.150;6.370;2023-08-30T02:21:05;13.90;99.90
52509;DHT22;38420;53.150;6.370;2023-08-30T02:23:31;13.10;99.90
52509;DHT22;38420;53.150;6.370;2023-08-30T02:25:56;13.90;99.90
52509;DHT22;38420;53.150;6.370;2023-08-30T02:28:22;12.90;99.90
52509;DHT22;38420;53.150;6.370;2023-08-30T02:30:48;13.30;99.90
52509;DHT22;38420;53.150;6.370;2023-08-30T02:33:13;12.00;99.90
52509;DHT22;38420;53.150;6.370;2023-08-30T02:35:39;13.60;99.90
52509;DHT22;38420;53.150;6.370;2023-08-30T02:38:05;13.20;99.90
52509;DHT22;38420;53.150;6.370;2023-08-30T02:40:31;13.20;99.90
52509;DHT22;38420;53.150;6.370;2023-08-30T02:42:57;12.00;99.90
52509;DHT22;38420;53.150;6.370;2023-08-30T02:45:23;13.80;99.90
52509;DHT22;38420;53.150;6.370;2023-08-30T02:47:48;12.30;99.90
52509;DHT22;38420;53.150;6.370;2023-08-30T02:50:14;13.80;99.90
52509;DHT22;38420;53.150;6.370;2023-08-30T02:52:39;13.70;99.90
52509;DHT22;38420;53.150;6.370;2023-08-30T02:55:05;13.50;99.90
52509;DHT22;38420;53.150;6.370;2023-08-30T02:57:31;13.70;99.90
52509;DHT22;38420;53.150;6.370;2023-08-30T02:59:57;13.50;99.90
52509;DHT22;38420;53.150;6.370;2023-08-30T03:02:23;11.90;99.90
52509;DHT22;38420;53.150;6.370;2023-08-30T03:04:48;11.80;99.90
52509;DHT22;38420;53.150;6.370;2023-08-30T03:07:14;13.00;99.90
52509;DHT22;38420;53.150;6.370;2023-08-30T03:09:39;13.40;99.90
52509;DHT22;38420;53.150;6.370;2023-08-30T03:12:06;13.40;99.90
52509;DHT22;38420;53.150;6.370;2023-08-30T03:14:32;11.90;99.90
52509;DHT22;38420;53.150;6.370;2023-08-30T03:16:57;13.00;99.90
52509;DHT22;38420;53.150;6.370;2023-08-30T03:19:23;11.60;99.90
52509;DHT22;38420;53.150;6.370;2023-08-30T03:21:48;11.90;99.90
52509;DHT22;38420;53.150;6.370;2023-08-30T03:24:14;11.60;99.90
52509;DHT22;38420;53.150;6.370;2023-08-30T03:26:43;13.20;99.90
52509;DHT22;38420;53.150;6.370;2023-08-30T03:29:08;11.60;99.90
52509;DHT22;38420;53.150;6.370;2023-08-30T03:31:34;11.40;99.90
52509;DHT22;38420;53.150;6.370;2023-08-30T03:34:00;11.40;99.90
52509;DHT22;38420;53.150;6.370;2023-08-30T03:36:26;12.30;99.90
52509;DHT22;38420;53.150;6.370;2023-08-30T03:38:51;12.20;99.90
52509;DHT22;38420;53.150;6.370;2023-08-30T03:41:18;12.70;99.90
52509;DHT22;38420;53.150;6.370;2023-08-30T03:43:43;11.60;99.90
52509;DHT22;38420;53.150;6.370;2023-08-30T03:46:09;11.80;99.90
52509;DHT22;38420;53.150;6.370;2023-08-30T03:48:37;13.10;99.90
52509;DHT22;38420;53.150;6.370;2023-08-30T03:51:03;12.00;99.90
52509;DHT22;38420;53.150;6.370;2023-08-30T03:53:28;12.00;99.90
52509;DHT22;38420;53.150;6.370;2023-08-30T03:55:55;12.80;99.90
52509;DHT22;38420;53.150;6.370;2023-08-30T03:58:21;12.60;99.90
52509;DHT22;38420;53.150;6.370;2023-08-30T04:00:47;12.80;99.90
52509;DHT22;38420;53.150;6.370;2023-08-30T04:03:14;12.30;99.90
52509;DHT22;38420;53.150;6.370;2023-08-30T04:05:39;11.80;99.90
52509;DHT22;38420;53.150;6.370;2023-08-30T04:08:06;11.40;99.90
52509;DHT22;38420;53.150;6.370;2023-08-30T04:10:39;11.60;99.90
52509;DHT22;38420;53.150;6.370;2023-08-30T04:13:06;13.30;99.90
52509;DHT22;38420;53.150;6.370;2023-08-30T04:15:33;12.00;99.90
52509;DHT22;38420;53.150;6.370;2023-08-30T04:17:59;11.60;99.90
52509;DHT22;38420;53.150;6.370;2023-08-30T04:20:25;12.90;99.90
52509;DHT22;38420;53.150;6.370;2023-08-30T04:22:50;12.60;99.90
52509;DHT22;38420;53.150;6.370;2023-08-30T04:25:16;11.50;99.90
52509;DHT22;38420;53.150;6.370;2023-08-30T04:27:42;11.50;99.90
52509;DHT22;38420;53.150;6.370;2023-08-30T04:30:09;12.90;99.90
52509;DHT22;38420;53.150;6.370;2023-08-30T04:32:35;11.50;99.90
52509;DHT22;38420;53.150;6.370;2023-08-30T04:35:01;11.60;99.90
52509;DHT22;38420;53.150;6.370;2023-08-30T04:37:29;12.30;99.90
52509;DHT22;38420;53.150;6.370;2023-08-30T04:39:55;11.90;99.90
52509;DHT22;38420;53.150;6.370;2023-08-30T04:42:21;12.20;99.90
52509;DHT22;38420;53.150;6.370;2023-08-30T04:44:46;12.60;99.90
52509;DHT22;38420;53.150;6.370;2023-08-30T04:47:12;12.50;99.90
52509;DHT22;38420;53.150;6.370;2023-08-30T04:49:38;12.40;99.90
52509;DHT22;38420;53.150;6.370;2023-08-30T04:52:04;12.20;99.90
52509;DHT22;38420;53.150;6.370;2023-08-30T04:54:30;12.10;99.90
52509;DHT22;38420;53.150;6.370;2023-08-30T04:56:55;13.60;99.90
52509;DHT22;38420;53.150;6.370;2023-08-30T04:59:21;11.90;99.90
52509;DHT22;38420;53.150;6.370;2023-08-30T05:01:47;12.70;99.90
52509;DHT22;38420;53.150;6.370;2023-08-30T05:04:12;13.70;99.90
52509;DHT22;38420;53.150;6.370;2023-08-30T05:06:38;12.20;99.90
52509;DHT22;38420;53.150;6.370;2023-08-30T05:09:04;12.80;99.90
52509;DHT22;38420;53.150;6.370;2023-08-30T05:11:29;12.30;99.90
52509;DHT22;38420;53.150;6.370;2023-08-30T05:13:55;11.90;99.90
52509;DHT22;38420;53.150;6.370;2023-08-30T05:16:21;13.60;99.90
52509;DHT22;38420;53.150;6.370;2023-08-30T05:18:46;13.60;99.90
52509;DHT22;38420;53.150;6.370;2023-08-30T05:21:15;12.90;99.90
52509;DHT22;38420;53.150;6.370;2023-08-30T05:23:41;13.70;99.90
52509;DHT22;38420;53.150;6.370;2023-08-30T05:26:10;12.00;99.90
52509;DHT22;38420;53.150;6.370;2023-08-30T05:28:39;13.20;99.90
52509;DHT22;38420;53.150;6.370;2023-08-30T05:31:05;13.60;99.90
52509;DHT22;38420;53.150;6.370;2023-08-30T05:33:31;13.30;99.90
52509;DHT22;38420;53.150;6.370;2023-08-30T05:35:57;13.50;99.90
52509;DHT22;38420;53.150;6.370;2023-08-30T05:38:22;13.70;99.90
52509;DHT22;38420;53.150;6.370;2023-08-30T05:40:48;13.80;99.90
52509;DHT22;38420;53.150;6.370;2023-08-30T05:43:14;12.30;99.90
52509;DHT22;38420;53.150;6.370;2023-08-30T05:45:41;12.40;99.90
52509;DHT22;38420;53.150;6.370;2023-08-30T05:48:07;13.70;99.90
52509;DHT22;38420;53.150;6.370;2023-08-30T05:50:32;13.70;99.90
52509;DHT22;38420;53.150;6.370;2023-08-30T05:52:58;13.70;99.90
52509;DHT22;38420;53.150;6.370;2023-08-30T05:55:23;13.90;99.90
52509;DHT22;38420;53.150;6.370;2023-08-30T05:57:49;12.70;99.90
52509;DHT22;38420;53.150;6.370;2023-08-30T06:00:15;13.50;99.90
52509;DHT22;38420;53.150;6.370;2023-08-30T06:02:41;14.00;99.90
52509;DHT22;38420;53.150;6.370;2023-08-30T06:05:07;14.10;99.90
52509;DHT22;38420;53.150;6.370;2023-08-30T06:07:32;13.70;99.90
52509;DHT22;38420;53.150;6.370;2023-08-30T06:09:58;13.20;99.90
52509;DHT22;38420;53.150;6.370;2023-08-30T06:12:24;13.40;99.90
52509;DHT22;38420;53.150;6.370;2023-08-30T06:14:54;14.20;99.90
52509;DHT22;38420;53.150;6.370;2023-08-30T06:17:19;13.30;99.90
52509;DHT22;38420;53.150;6.370;2023-08-30T06:19:45;14.10;99.90
52509;DHT22;38420;53.150;6.370;2023-08-30T06:22:11;14.30;99.90
52509;DHT22;38420;53.150;6.370;2023-08-30T06:24:37;14.30;99.90
52509;DHT22;38420;53.150;6.370;2023-08-30T06:27:03;14.30;99.90
52509;DHT22;38420;53.150;6.370;2023-08-30T06:29:29;14.30;99.90
52509;DHT22;38420;53.150;6.370;2023-08-30T06:31:55;14.30;99.90
52509;DHT22;38420;53.150;6.370;2023-08-30T06:34:20;13.90;99.90
52509;DHT22;38420;53.150;6.370;2023-08-30T06:36:46;13.40;99.90
52509;DHT22;38420;53.150;6.370;2023-08-30T06:39:12;13.40;99.90
52509;DHT22;38420;53.150;6.370;2023-08-30T06:41:38;13.60;99.90
52509;DHT22;38420;53.150;6.370;2023-08-30T06:44:03;14.20;99.90
52509;DHT22;38420;53.150;6.370;2023-08-30T06:46:29;13.90;99.90
52509;DHT22;38420;53.150;6.370;2023-08-30T06:48:55;14.20;99.90
52509;DHT22;38420;53.150;6.370;2023-08-30T06:51:20;13.90;99.90
52509;DHT22;38420;53.150;6.370;2023-08-30T06:53:46;14.00;99.90
52509;DHT22;38420;53.150;6.370;2023-08-30T06:56:12;13.90;99.90
52509;DHT22;38420;53.150;6.370;2023-08-30T06:58:38;13.70;99.90
52509;DHT22;38420;53.150;6.370;2023-08-30T07:01:04;13.60;99.90
52509;DHT22;38420;53.150;6.370;2023-08-30T07:03:29;14.00;99.90
52509;DHT22;38420;53.150;6.370;2023-08-30T07:05:55;14.20;99.90
52509;DHT22;38420;53.150;6.370;2023-08-30T07:08:21;13.70;99.90
52509;DHT22;38420;53.150;6.370;2023-08-30T07:10:46;13.60;99.90
52509;DHT22;38420;53.150;6.370;2023-08-30T07:13:12;14.00;99.90
52509;DHT22;38420;53.150;6.370;2023-08-30T07:15:39;13.80;99.90
52509;DHT22;38420;53.150;6.370;2023-08-30T07:18:06;14.40;99.90
52509;DHT22;38420;53.150;6.370;2023-08-30T07:20:31;14.60;99.90
52509;DHT22;38420;53.150;6.370;2023-08-30T07:22:57;14.60;99.90
52509;DHT22;38420;53.150;6.370;2023-08-30T07:25:23;14.40;99.90
52509;DHT22;38420;53.150;6.370;2023-08-30T07:27:49;14.70;99.90
52509;DHT22;38420;53.150;6.370;2023-08-30T07:30:15;14.80;99.90
52509;DHT22;38420;53.150;6.370;2023-08-30T07:32:41;14.40;99.90
52509;DHT22;38420;53.150;6.370;2023-08-30T07:35:07;14.70;99.90
52509;DHT22;38420;53.150;6.370;2023-08-30T07:37:34;14.70;99.90
52509;DHT22;38420;53.150;6.370;2023-08-30T07:40:00;14.70;99.90
52509;DHT22;38420;53.150;6.370;2023-08-30T07:42:26;15.00;99.90
52509;DHT22;38420;53.150;6.370;2023-08-30T07:44:51;15.20;99.90
52509;DHT22;38420;53.150;6.370;2023-08-30T07:47:17;15.40;99.90
52509;DHT22;38420;53.150;6.370;2023-08-30T07:49:42;15.50;99.90
52509;DHT22;38420;53.150;6.370;2023-08-30T07:52:08;15.40;99.90
52509;DHT22;38420;53.150;6.370;2023-08-30T07:54:37;15.70;99.90
52509;DHT22;38420;53.150;6.370;2023-08-30T07:57:03;15.60;99.90
52509;DHT22;38420;53.150;6.370;2023-08-30T07:59:29;15.70;99.90
52509;DHT22;38420;53.150;6.370;2023-08-30T08:01:55;16.00;99.90
52509;DHT22;38420;53.150;6.370;2023-08-30T08:04:21;16.10;99.90
52509;DHT22;38420;53.150;6.370;2023-08-30T08:06:47;16.00;99.90
52509;DHT22;38420;53.150;6.370;2023-08-30T08:09:13;16.10;99.90
52509;DHT22;38420;53.150;6.370;2023-08-30T08:11:38;16.10;99.90
52509;DHT22;38420;53.150;6.370;2023-08-30T08:14:12;16.20;99.90
52509;DHT22;38420;53.150;6.370;2023-08-30T08:16:38;16.00;99.90
52509;DHT22;38420;53.150;6.370;2023-08-30T08:19:03;15.90;99.90
52509;DHT22;38420;53.150;6.370;2023-08-30T08:21:29;16.20;99.90
52509;DHT22;38420;53.150;6.370;2023-08-30T08:23:55;16.20;99.90
52509;DHT22;38420;53.150;6.370;2023-08-30T08:26:20;16.10;99.90
52509;DHT22;38420;53.150;6.370;2023-08-30T08:28:46;15.90;99.90
52509;DHT22;38420;53.150;6.370;2023-08-30T08:31:12;15.90;99.90
52509;DHT22;38420;53.150;6.370;2023-08-30T08:33:37;16.00;99.90
52509;DHT22;38420;53.150;6.370;2023-08-30T08:36:03;16.00;99.90
52509;DHT22;38420;53.150;6.370;2023-08-30T08:38:29;16.10;99.90
52509;DHT22;38420;53.150;6.370;2023-08-30T08:41:02;16.00;99.90
52509;DHT22;38420;53.150;6.370;2023-08-30T08:43:32;16.10;99.90
52509;DHT22;38420;53.150;6.370;2023-08-30T08:46:03;16.30;99.90
52509;DHT22;38420;53.150;6.370;2023-08-30T08:48:29;16.20;99.90
52509;DHT22;38420;53.150;6.370;2023-08-30T08:50:57;16.10;99.90
52509;DHT22;38420;53.150;6.370;2023-08-30T08:53:23;16.30;99.90
52509;DHT22;38420;53.150;6.370;2023-08-30T08:55:49;16.00;99.90
52509;DHT22;38420;53.150;6.370;2023-08-30T08:58:15;15.90;99.90
52509;DHT22;38420;53.150;6.370;2023-08-30T09:00:44;16.10;99.90
52509;DHT22;38420;53.150;6.370;2023-08-30T09:03:11;16.10;99.90
52509;DHT22;38420;53.150;6.370;2023-08-30T09:05:40;16.00;99.90
52509;DHT22;38420;53.150;6.370;2023-08-30T09:08:06;15.80;99.90
52509;DHT22;38420;53.150;6.370;2023-08-30T09:10:32;16.00;99.90
52509;DHT22;38420;53.150;6.370;2023-08-30T09:12:59;16.00;99.90
52509;DHT22;38420;53.150;6.370;2023-08-30T09:15:34;15.80;99.90
52509;DHT22;38420;53.150;6.370;2023-08-30T09:18:02;15.80;99.90
52509;DHT22;38420;53.150;6.370;2023-08-30T09:20:28;15.80;99.90
52509;DHT22;38420;53.150;6.370;2023-08-30T09:22:54;15.70;99.90
52509;DHT22;38420;53.150;6.370;2023-08-30T09:25:24;15.80;99.90
52509;DHT22;38420;53.150;6.370;2023-08-30T09:27:59;15.70;99.90
52509;DHT22;38420;53.150;6.370;2023-08-30T09:30:26;16.00;99.90
52509;DHT22;38420;53.150;6.370;2023-08-30T09:32:52;15.80;99.90
52509;DHT22;38420;53.150;6.370;2023-08-30T09:35:17;15.80;99.90
52509;DHT22;38420;53.150;6.370;2023-08-30T09:37:46;16.00;99.90
52509;DHT22;38420;53.150;6.370;2023-08-30T09:40:12;16.00;99.90
52509;DHT22;38420;53.150;6.370;2023-08-30T09:42:43;15.80;99.90
52509;DHT22;38420;53.150;6.370;2023-08-30T09:45:38;15.80;99.90
52509;DHT22;38420;53.150;6.370;2023-08-30T09:48:05;15.90;99.90
52509;DHT22;38420;53.150;6.370;2023-08-30T09:50:35;16.00;99.90
52509;DHT22;38420;53.150;6.370;2023-08-30T09:53:08;15.90;99.90
52509;DHT22;38420;53.150;6.370;2023-08-30T09:55:35;15.80;99.90
52509;DHT22;38420;53.150;6.370;2023-08-30T09:58:04;15.80;99.90
52509;DHT22;38420;53.150;6.370;2023-08-30T10:00:31;15.80;99.90
52509;DHT22;38420;53.150;6.370;2023-08-30T10:02:59;16.00;99.90
52509;DHT22;38420;53.150;6.370;2023-08-30T10:05:25;16.10;99.90
52509;DHT22;38420;53.150;6.370;2023-08-30T10:07:52;16.10;99.90
52509;DHT22;38420;53.150;6.370;2023-08-30T10:10:19;16.00;99.90
52509;DHT22;38420;53.150;6.370;2023-08-30T10:12:46;16.00;99.90
52509;DHT22;38420;53.150;6.370;2023-08-30T10:15:12;16.10;99.90
52509;DHT22;38420;53.150;6.370;2023-08-30T10:17:38;15.90;99.90
52509;DHT22;38420;53.150;6.370;2023-08-30T10:20:06;16.00;99.90
52509;DHT22;38420;53.150;6.370;2023-08-30T10:22:35;15.90;99.90
52509;DHT22;38420;53.150;6.370;2023-08-30T10:25:04;16.00;99.90
52509;DHT22;38420;53.150;6.370;2023-08-30T10:27:35;16.40;99.90
52509;DHT22;38420;53.150;6.370;2023-08-30T10:30:04;16.30;99.90
52509;DHT22;38420;53.150;6.370;2023-08-30T10:32:30;16.40;99.90
52509;DHT22;38420;53.150;6.370;2023-08-30T10:35:01;16.40;99.90
52509;DHT22;38420;53.150;6.370;2023-08-30T10:37:29;16.50;99.90
52509;DHT22;38420;53.150;6.370;2023-08-30T10:39:59;16.90;99.90
52509;DHT22;38420;53.150;6.370;2023-08-30T10:42:26;16.60;99.90
52509;DHT22;38420;53.150;6.370;2023-08-30T10:45:04;16.90;99.90
52509;DHT22;38420;53.150;6.370;2023-08-30T10:47:32;16.90;99.90
52509;DHT22;38420;53.150;6.370;2023-08-30T10:49:59;16.70;99.90
52509;DHT22;38420;53.150;6.370;2023-08-30T10:52:29;16.70;99.90
52509;DHT22;38420;53.150;6.370;2023-08-30T10:57:30;17.00;99.90
52509;DHT22;38420;53.150;6.370;2023-08-30T11:02:37;17.00;99.90
52509;DHT22;38420;53.150;6.370;2023-08-30T11:05:06;17.20;99.90
52509;DHT22;38420;53.150;6.370;2023-08-30T11:07:32;17.50;99.90
52509;DHT22;38420;53.150;6.370;2023-08-30T11:09:58;17.20;99.90
52509;DHT22;38420;53.150;6.370;2023-08-30T11:12:24;17.10;99.90
52509;DHT22;38420;53.150;6.370;2023-08-30T11:14:55;17.30;99.90
52509;DHT22;38420;53.150;6.370;2023-08-30T11:17:20;17.00;99.90
52509;DHT22;38420;53.150;6.370;2023-08-30T11:19:50;17.30;99.90
52509;DHT22;38420;53.150;6.370;2023-08-30T11:22:17;17.10;99.90
52509;DHT22;38420;53.150;6.370;2023-08-30T11:24:43;17.10;99.90
52509;DHT22;38420;53.150;6.370;2023-08-30T11:27:09;17.40;99.90
52509;DHT22;38420;53.150;6.370;2023-08-30T11:29:35;17.10;99.90
52509;DHT22;38420;53.150;6.370;2023-08-30T11:32:01;17.30;99.90
52509;DHT22;38420;53.150;6.370;2023-08-30T11:34:26;17.30;99.90
52509;DHT22;38420;53.150;6.370;2023-08-30T11:36:52;17.30;99.90
52509;DHT22;38420;53.150;6.370;2023-08-30T11:39:19;17.20;99.90
52509;DHT22;38420;53.150;6.370;2023-08-30T11:41:45;16.90;99.90
52509;DHT22;38420;53.150;6.370;2023-08-30T11:44:11;17.30;99.90
52509;DHT22;38420;53.150;6.370;2023-08-30T11:46:37;17.10;99.90
52509;DHT22;38420;53.150;6.370;2023-08-30T11:49:03;17.00;99.90
52509;DHT22;38420;53.150;6.370;2023-08-30T11:51:29;16.80;99.90
52509;DHT22;38420;53.150;6.370;2023-08-30T11:53:55;16.80;99.90
52509;DHT22;38420;53.150;6.370;2023-08-30T11:56:21;16.80;99.90
52509;DHT22;38420;53.150;6.370;2023-08-30T11:58:48;16.90;99.90
52509;DHT22;38420;53.150;6.370;2023-08-30T12:01:14;17.00;99.90
52509;DHT22;38420;53.150;6.370;2023-08-30T12:03:40;16.70;99.90
52509;DHT22;38420;53.150;6.370;2023-08-30T12:06:10;16.60;99.90
52509;DHT22;38420;53.150;6.370;2023-08-30T12:08:39;16.60;99.90
52509;DHT22;38420;53.150;6.370;2023-08-30T12:11:05;17.00;99.90
52509;DHT22;38420;53.150;6.370;2023-08-30T12:13:34;16.40;99.90
52509;DHT22;38420;53.150;6.370;2023-08-30T12:16:01;16.40;99.90
52509;DHT22;38420;53.150;6.370;2023-08-30T12:18:29;16.30;99.90
52509;DHT22;38420;53.150;6.370;2023-08-30T12:20:59;16.70;99.90
52509;DHT22;38420;53.150;6.370;2023-08-30T12:23:27;16.80;99.90
52509;DHT22;38420;53.150;6.370;2023-08-30T12:26:06;16.60;99.90
52509;DHT22;38420;53.150;6.370;2023-08-30T12:28:34;16.20;99.90
52509;DHT22;38420;53.150;6.370;2023-08-30T12:31:00;16.50;99.90
52509;DHT22;38420;53.150;6.370;2023-08-30T12:33:26;16.60;99.90
52509;DHT22;38420;53.150;6.370;2023-08-30T12:35:54;16.00;99.90
52509;DHT22;38420;53.150;6.370;2023-08-30T12:38:21;15.30;99.90
52509;DHT22;38420;53.150;6.370;2023-08-30T12:40:49;15.50;99.90
52509;DHT22;38420;53.150;6.370;2023-08-30T12:43:16;15.80;99.90
52509;DHT22;38420;53.150;6.370;2023-08-30T12:45:42;15.20;99.90
52509;DHT22;38420;53.150;6.370;2023-08-30T12:48:09;15.20;99.90
52509;DHT22;38420;53.150;6.370;2023-08-30T12:50:36;15.60;99.90
52509;DHT22;38420;53.150;6.370;2023-08-30T12:53:05;15.80;99.90
52509;DHT22;38420;53.150;6.370;2023-08-30T12:55:31;15.20;99.90
52509;DHT22;38420;53.150;6.370;2023-08-30T12:57:57;16.20;99.90
52509;DHT22;38420;53.150;6.370;2023-08-30T13:00:24;16.00;99.90
52509;DHT22;38420;53.150;6.370;2023-08-30T13:02:50;15.50;99.90
52509;DHT22;38420;53.150;6.370;2023-08-30T13:05:16;15.60;99.90
52509;DHT22;38420;53.150;6.370;2023-08-30T13:07:42;14.60;99.90
52509;DHT22;38420;53.150;6.370;2023-08-30T13:10:08;14.60;99.90
52509;DHT22;38420;53.150;6.370;2023-08-30T13:12:33;14.80;99.90
52509;DHT22;38420;53.150;6.370;2023-08-30T13:14:59;15.90;99.90
52509;DHT22;38420;53.150;6.370;2023-08-30T13:17:25;16.00;99.90
52509;DHT22;38420;53.150;6.370;2023-08-30T13:19:51;14.50;99.90
52509;DHT22;38420;53.150;6.370;2023-08-30T13:22:17;15.80;99.90
52509;DHT22;38420;53.150;6.370;2023-08-30T13:24:43;15.70;99.90
52509;DHT22;38420;53.150;6.370;2023-08-30T13:27:09;14.30;99.90
52509;DHT22;38420;53.150;6.370;2023-08-30T13:29:35;14.40;99.90
52509;DHT22;38420;53.150;6.370;2023-08-30T13:32:01;15.80;99.90
52509;DHT22;38420;53.150;6.370;2023-08-30T13:34:27;14.40;99.90
52509;DHT22;38420;53.150;6.370;2023-08-30T13:36:52;14.60;99.90
52509;DHT22;38420;53.150;6.370;2023-08-30T13:39:18;14.20;99.90
52509;DHT22;38420;53.150;6.370;2023-08-30T13:41:46;15.80;99.90
52509;DHT22;38420;53.150;6.370;2023-08-30T13:44:13;14.50;99.90
52509;DHT22;38420;53.150;6.370;2023-08-30T13:46:38;15.70;99.90
52509;DHT22;38420;53.150;6.370;2023-08-30T13:49:04;15.10;99.90
52509;DHT22;38420;53.150;6.370;2023-08-30T13:51:30;15.40;99.90
52509;DHT22;38420;53.150;6.370;2023-08-30T13:53:56;15.50;99.90
52509;DHT22;38420;53.150;6.370;2023-08-30T13:56:22;15.30;99.90
52509;DHT22;38420;53.150;6.370;2023-08-30T13:58:48;14.10;99.90
52509;DHT22;38420;53.150;6.370;2023-08-30T14:01:14;14.00;99.90
52509;DHT22;38420;53.150;6.370;2023-08-30T14:03:40;15.80;99.90
52509;DHT22;38420;53.150;6.370;2023-08-30T14:06:06;14.60;99.90
52509;DHT22;38420;53.150;6.370;2023-08-30T14:08:32;15.60;99.90
52509;DHT22;38420;53.150;6.370;2023-08-30T14:10:58;14.10;99.90
52509;DHT22;38420;53.150;6.370;2023-08-30T14:13:23;15.90;99.90
52509;DHT22;38420;53.150;6.370;2023-08-30T14:15:49;15.00;99.90
52509;DHT22;38420;53.150;6.370;2023-08-30T14:18:15;15.30;99.90
52509;DHT22;38420;53.150;6.370;2023-08-30T14:20:42;14.10;99.90
52509;DHT22;38420;53.150;6.370;2023-08-30T14:23:08;14.60;99.90
52509;DHT22;38420;53.150;6.370;2023-08-30T14:25:34;16.00;99.90
52509;DHT22;38420;53.150;6.370;2023-08-30T14:28:00;16.00;99.90
52509;DHT22;38420;53.150;6.370;2023-08-30T14:30:26;14.10;99.90
52509;DHT22;38420;53.150;6.370;2023-08-30T14:32:52;15.80;99.90
52509;DHT22;38420;53.150;6.370;2023-08-30T14:35:18;15.10;99.90
52509;DHT22;38420;53.150;6.370;2023-08-30T14:37:46;15.70;99.90
52509;DHT22;38420;53.150;6.370;2023-08-30T14:40:12;15.80;99.90
52509;DHT22;38420;53.150;6.370;2023-08-30T14:42:38;15.90;99.90
52509;DHT22;38420;53.150;6.370;2023-08-30T14:45:04;15.10;99.90
52509;DHT22;38420;53.150;6.370;2023-08-30T14:47:32;14.50;99.90
52509;DHT22;38420;53.150;6.370;2023-08-30T14:49:58;14.30;99.90
52509;DHT22;38420;53.150;6.370;2023-08-30T14:52:24;14.40;99.90
52509;DHT22;38420;53.150;6.370;2023-08-30T14:54:50;16.20;99.90
52509;DHT22;38420;53.150;6.370;2023-08-30T14:57:15;14.70;99.90
52509;DHT22;38420;53.150;6.370;2023-08-30T14:59:41;15.80;99.90
52509;DHT22;38420;53.150;6.370;2023-08-30T15:02:06;14.80;99.90
52509;DHT22;38420;53.150;6.370;2023-08-30T15:04:32;16.20;99.90
52509;DHT22;38420;53.150;6.370;2023-08-30T15:06:58;15.10;99.90
52509;DHT22;38420;53.150;6.370;2023-08-30T15:09:23;16.50;99.90
52509;DHT22;38420;53.150;6.370;2023-08-30T15:11:49;15.90;99.90
52509;DHT22;38420;53.150;6.370;2023-08-30T15:14:14;17.00;99.90
52509;DHT22;38420;53.150;6.370;2023-08-30T15:16:40;16.80;99.90
52509;DHT22;38420;53.150;6.370;2023-08-30T15:19:06;16.70;99.90
52509;DHT22;38420;53.150;6.370;2023-08-30T15:21:31;16.70;99.90
52509;DHT22;38420;53.150;6.370;2023-08-30T15:23:57;16.40;99.90
52509;DHT22;38420;53.150;6.370;2023-08-30T15:26:22;16.60;99.90
52509;DHT22;38420;53.150;6.370;2023-08-30T15:28:48;15.40;99.90
52509;DHT22;38420;53.150;6.370;2023-08-30T15:31:15;15.90;99.90
52509;DHT22;38420;53.150;6.370;2023-08-30T15:33:42;16.70;99.90